sensor_id;sensor_type;location;lat;lon;timestamp;temperature;humidity
3705;DHT22;1868;48.918;9.438;2023-07-09T00:02:27;20.80;97.40
3705;DHT22;1868;48.918;9.438;2023-07-09T00:04:56;20.70;97.40
3705;DHT22;1868;48.918;9.438;2023-07-09T00:07:28;20.70;97.40
3705;DHT22;1868;48.918;9.438;2023-07-09T00:09:58;20.70;97.40
3705;DHT22;1868;48.918;9.438;2023-07-09T00:12:28;20.70;97.40
3705;DHT22;1868;48.918;9.438;2023-07-09T00:14:57;20.60;97.40
3705;DHT22;1868;48.918;9.438;2023-07-09T00:17:30;20.60;97.40
3705;DHT22;1868;48.918;9.438;2023-07-09T00:20:02;20.50;97.40
3705;DHT22;1868;48.918;9.438;2023-07-09T00:22:32;20.50;97.40
3705;DHT22;1868;48.918;9.438;2023-07-09T00:25:02;20.50;97.40
3705;DHT22;1868;48.918;9.438;2023-07-09T00:27:31;20.50;97.40
3705;DHT22;1868;48.918;9.438;2023-07-09T00:29:59;20.40;97.40
3705;DHT22;1868;48.918;9.438;2023-07-09T00:32:31;20.40;97.40
3705;DHT22;1868;48.918;9.438;2023-07-09T00:35:03;20.30;97.40
3705;DHT22;1868;48.918;9.438;2023-07-09T00:37:32;20.30;97.40
3705;DHT22;1868;48.918;9.438;2023-07-09T00:40:00;20.30;97.40
3705;DHT22;1868;48.918;9.438;2023-07-09T00:42:30;20.30;97.40
3705;DHT22;1868;48.918;9.438;2023-07-09T00:44:58;20.30;97.40
3705;DHT22;1868;48.918;9.438;2023-07-09T00:47:36;20.20;97.40
3705;DHT22;1868;48.918;9.438;2023-07-09T00:50:15;20.20;97.40
3705;DHT22;1868;48.918;9.438;2023-07-09T00:52:54;20.10;97.40
3705;DHT22;1868;48.918;9.438;2023-07-09T00:55:34;20.10;97.40
3705;DHT22;1868;48.918;9.438;2023-07-09T00:58:07;20.10;97.40
3705;DHT22;1868;48.918;9.438;2023-07-09T01:00:43;20.00;97.40
3705;DHT22;1868;48.918;9.438;2023-07-09T01:03:25;20.00;97.40
3705;DHT22;1868;48.918;9.438;2023-07-09T01:05:58;20.00;97.40
3705;DHT22;1868;48.918;9.438;2023-07-09T01:08:29;20.00;97.40
3705;DHT22;1868;48.918;9.438;2023-07-09T01:10:59;19.90;97.40
3705;DHT22;1868;48.918;9.438;2023-07-09T01:13:29;19.90;97.40
3705;DHT22;1868;48.918;9.438;2023-07-09T01:15:59;19.90;97.40
3705;DHT22;1868;48.918;9.438;2023-07-09T01:18:30;19.80;97.40
3705;DHT22;1868;48.918;9.438;2023-07-09T01:21:03;19.80;97.40
3705;DHT22;1868;48.918;9.438;2023-07-09T01:23:43;19.70;97.40
3705;DHT22;1868;48.918;9.438;2023-07-09T01:26:15;19.70;97.40
3705;DHT22;1868;48.918;9.438;2023-07-09T01:28:46;19.70;97.40
3705;DHT22;1868;48.918;9.438;2023-07-09T01:31:16;19.60;97.40
3705;DHT22;1868;48.918;9.438;2023-07-09T01:33:47;19.60;97.40
3705;DHT22;1868;48.918;9.438;2023-07-09T01:36:20;19.50;97.40
3705;DHT22;1868;48.918;9.438;2023-07-09T01:38:51;19.50;97.40
3705;DHT22;1868;48.918;9.438;2023-07-09T01:41:20;19.50;97.40
3705;DHT22;1868;48.918;9.438;2023-07-09T01:43:51;19.40;97.40
3705;DHT22;1868;48.918;9.438;2023-07-09T01:46:19;19.30;97.40
3705;DHT22;1868;48.918;9.438;2023-07-09T01:48:48;19.30;97.40
3705;DHT22;1868;48.918;9.438;2023-07-09T01:51:21;19.30;97.40
3705;DHT22;1868;48.918;9.438;2023-07-09T01:53:51;19.20;97.40
3705;DHT22;1868;48.918;9.438;2023-07-09T01:56:20;19.20;97.40
3705;DHT22;1868;48.918;9.438;2023-07-09T01:58:51;19.20;97.40
3705;DHT22;1868;48.918;9.438;2023-07-09T02:01:20;19.20;97.40
3705;DHT22;1868;48.918;9.438;2023-07-09T02:03:49;19.10;97.40
3705;DHT22;1868;48.918;9.438;2023-07-09T02:06:17;19.00;97.40
3705;DHT22;1868;48.918;9.438;2023-07-09T02:08:48;19.00;97.40
3705;DHT22;1868;48.918;9.438;2023-07-09T02:11:17;19.00;97.40
3705;DHT22;1868;48.918;9.438;2023-07-09T02:13:45;19.00;97.40
3705;DHT22;1868;48.918;9.438;2023-07-09T02:16:14;18.90;97.40
3705;DHT22;1868;48.918;9.438;2023-07-09T02:18:44;18.90;97.40
3705;DHT22;1868;48.918;9.438;2023-07-09T02:21:12;18.90;97.40
3705;DHT22;1868;48.918;9.438;2023-07-09T02:23:41;18.90;97.40
3705;DHT22;1868;48.918;9.438;2023-07-09T02:26:13;18.80;97.40
3705;DHT22;1868;48.918;9.438;2023-07-09T02:28:42;18.80;97.40
3705;DHT22;1868;48.918;9.438;2023-07-09T02:31:11;18.80;97.40
3705;DHT22;1868;48.918;9.438;2023-07-09T02:33:41;18.80;97.40
3705;DHT22;1868;48.918;9.438;2023-07-09T02:36:11;18.70;97.40
3705;DHT22;1868;48.918;9.438;2023-07-09T02:38:39;18.70;97.40
3705;DHT22;1868;48.918;9.438;2023-07-09T02:41:08;18.70;97.40
3705;DHT22;1868;48.918;9.438;2023-07-09T02:43:38;18.70;97.40
3705;DHT22;1868;48.918;9.438;2023-07-09T02:46:07;18.70;97.40
3705;DHT22;1868;48.918;9.438;2023-07-09T02:48:36;18.60;97.40
3705;DHT22;1868;48.918;9.438;2023-07-09T02:51:05;18.60;97.40
3705;DHT22;1868;48.918;9.438;2023-07-09T02:53:35;18.50;97.40
3705;DHT22;1868;48.918;9.438;2023-07-09T02:56:04;18.50;97.40
3705;DHT22;1868;48.918;9.438;2023-07-09T02:58:34;18.50;97.40
3705;DHT22;1868;48.918;9.438;2023-07-09T03:01:06;18.40;97.40
3705;DHT22;1868;48.918;9.438;2023-07-09T03:03:37;18.40;97.40
3705;DHT22;1868;48.918;9.438;2023-07-09T03:06:06;18.40;97.40
3705;DHT22;1868;48.918;9.438;2023-07-09T03:08:35;18.30;97.40
3705;DHT22;1868;48.918;9.438;2023-07-09T03:11:09;18.30;97.40
3705;DHT22;1868;48.918;9.438;2023-07-09T03:13:39;18.30;97.40
3705;DHT22;1868;48.918;9.438;2023-07-09T03:16:09;18.30;97.40
3705;DHT22;1868;48.918;9.438;2023-07-09T03:18:38;18.30;97.40
3705;DHT22;1868;48.918;9.438;2023-07-09T03:21:07;18.20;97.40
3705;DHT22;1868;48.918;9.438;2023-07-09T03:23:38;18.20;97.40
3705;DHT22;1868;48.918;9.438;2023-07-09T03:26:09;18.20;97.40
3705;DHT22;1868;48.918;9.438;2023-07-09T03:28:37;18.10;97.40
3705;DHT22;1868;48.918;9.438;2023-07-09T03:31:08;18.10;97.40
3705;DHT22;1868;48.918;9.438;2023-07-09T03:33:38;18.00;97.40
3705;DHT22;1868;48.918;9.438;2023-07-09T03:36:07;18.00;97.40
3705;DHT22;1868;48.918;9.438;2023-07-09T03:38:36;17.90;97.40
3705;DHT22;1868;48.918;9.438;2023-07-09T03:41:04;17.90;97.40
3705;DHT22;1868;48.918;9.438;2023-07-09T03:43:33;17.90;97.40
3705;DHT22;1868;48.918;9.438;2023-07-09T03:46:02;17.90;97.40
3705;DHT22;1868;48.918;9.438;2023-07-09T03:48:33;17.80;97.40
3705;DHT22;1868;48.918;9.438;2023-07-09T03:51:02;17.80;97.40
3705;DHT22;1868;48.918;9.438;2023-07-09T03:53:31;17.90;97.40
3705;DHT22;1868;48.918;9.438;2023-07-09T03:56:00;17.80;97.40
3705;DHT22;1868;48.918;9.438;2023-07-09T03:58:29;17.90;97.40
3705;DHT22;1868;48.918;9.438;2023-07-09T04:00:58;17.80;97.40
3705;DHT22;1868;48.918;9.438;2023-07-09T04:03:27;17.80;97.40
3705;DHT22;1868;48.918;9.438;2023-07-09T04:05:57;17.80;97.40
3705;DHT22;1868;48.918;9.438;2023-07-09T04:08:26;17.80;97.40
3705;DHT22;1868;48.918;9.438;2023-07-09T04:10:58;17.90;97.40
3705;DHT22;1868;48.918;9.438;2023-07-09T04:13:30;17.90;97.40
3705;DHT22;1868;48.918;9.438;2023-07-09T04:16:01;17.90;97.40
3705;DHT22;1868;48.918;9.438;2023-07-09T04:18:30;18.00;97.40
3705;DHT22;1868;48.918;9.438;2023-07-09T04:21:01;18.00;97.40
3705;DHT22;1868;48.918;9.438;2023-07-09T04:23:30;18.10;97.40
3705;DHT22;1868;48.918;9.438;2023-07-09T04:25:58;18.10;97.40
3705;DHT22;1868;48.918;9.438;2023-07-09T04:28:30;18.20;97.40
3705;DHT22;1868;48.918;9.438;2023-07-09T04:30:59;18.20;97.40
3705;DHT22;1868;48.918;9.438;2023-07-09T04:33:28;18.30;97.40
3705;DHT22;1868;48.918;9.438;2023-07-09T04:35:58;18.30;97.40
3705;DHT22;1868;48.918;9.438;2023-07-09T04:38:28;18.40;97.40
3705;DHT22;1868;48.918;9.438;2023-07-09T04:41:00;18.50;97.40
3705;DHT22;1868;48.918;9.438;2023-07-09T04:43:28;18.50;97.40
3705;DHT22;1868;48.918;9.438;2023-07-09T04:45:58;18.60;97.40
3705;DHT22;1868;48.918;9.438;2023-07-09T04:48:29;18.70;97.40
3705;DHT22;1868;48.918;9.438;2023-07-09T04:50:57;18.70;97.40
3705;DHT22;1868;48.918;9.438;2023-07-09T04:53:28;18.90;97.40
3705;DHT22;1868;48.918;9.438;2023-07-09T04:55:57;19.00;97.40
3705;DHT22;1868;48.918;9.438;2023-07-09T04:58:28;19.00;97.40
3705;DHT22;1868;48.918;9.438;2023-07-09T05:00:58;19.10;97.40
3705;DHT22;1868;48.918;9.438;2023-07-09T05:03:27;19.20;97.40
3705;DHT22;1868;48.918;9.438;2023-07-09T05:05:55;19.30;97.40
3705;DHT22;1868;48.918;9.438;2023-07-09T05:08:25;19.40;97.40
3705;DHT22;1868;48.918;9.438;2023-07-09T05:10:57;19.50;97.40
3705;DHT22;1868;48.918;9.438;2023-07-09T05:13:25;19.60;97.40
3705;DHT22;1868;48.918;9.438;2023-07-09T05:15:55;19.80;97.40
3705;DHT22;1868;48.918;9.438;2023-07-09T05:18:24;19.90;97.40
3705;DHT22;1868;48.918;9.438;2023-07-09T05:20:54;20.00;97.40
3705;DHT22;1868;48.918;9.438;2023-07-09T05:23:24;20.10;97.40
3705;DHT22;1868;48.918;9.438;2023-07-09T05:25:57;20.30;97.40
3705;DHT22;1868;48.918;9.438;2023-07-09T05:28:26;20.40;97.40
3705;DHT22;1868;48.918;9.438;2023-07-09T05:30:55;20.60;97.40
3705;DHT22;1868;48.918;9.438;2023-07-09T05:33:24;20.70;97.40
3705;DHT22;1868;48.918;9.438;2023-07-09T05:35:54;20.80;97.40
3705;DHT22;1868;48.918;9.438;2023-07-09T05:38:23;20.90;97.40
3705;DHT22;1868;48.918;9.438;2023-07-09T05:41:00;21.00;97.40
3705;DHT22;1868;48.918;9.438;2023-07-09T05:43:30;21.10;97.40
3705;DHT22;1868;48.918;9.438;2023-07-09T05:46:01;21.30;97.40
3705;DHT22;1868;48.918;9.438;2023-07-09T05:48:31;21.40;97.40
3705;DHT22;1868;48.918;9.438;2023-07-09T05:51:00;21.50;97.40
3705;DHT22;1868;48.918;9.438;2023-07-09T05:53:31;21.60;97.40
3705;DHT22;1868;48.918;9.438;2023-07-09T05:56:02;21.70;97.40
3705;DHT22;1868;48.918;9.438;2023-07-09T05:58:31;21.80;97.40
3705;DHT22;1868;48.918;9.438;2023-07-09T06:01:00;22.00;97.40
3705;DHT22;1868;48.918;9.438;2023-07-09T06:03:29;22.10;97.40
3705;DHT22;1868;48.918;9.438;2023-07-09T06:06:01;22.30;97.40
3705;DHT22;1868;48.918;9.438;2023-07-09T06:08:30;22.50;97.40
3705;DHT22;1868;48.918;9.438;2023-07-09T06:11:02;22.60;97.40
3705;DHT22;1868;48.918;9.438;2023-07-09T06:13:31;22.80;97.40
3705;DHT22;1868;48.918;9.438;2023-07-09T06:16:01;23.00;97.40
3705;DHT22;1868;48.918;9.438;2023-07-09T06:18:30;23.10;97.40
3705;DHT22;1868;48.918;9.438;2023-07-09T06:21:00;23.30;97.40
3705;DHT22;1868;48.918;9.438;2023-07-09T06:23:31;23.50;97.40
3705;DHT22;1868;48.918;9.438;2023-07-09T06:26:02;23.70;97.40
3705;DHT22;1868;48.918;9.438;2023-07-09T06:28:31;23.80;97.40
3705;DHT22;1868;48.918;9.438;2023-07-09T06:31:00;24.00;97.40
3705;DHT22;1868;48.918;9.438;2023-07-09T06:33:30;24.20;97.40
3705;DHT22;1868;48.918;9.438;2023-07-09T06:36:00;24.40;97.40
3705;DHT22;1868;48.918;9.438;2023-07-09T06:38:30;24.60;97.40
3705;DHT22;1868;48.918;9.438;2023-07-09T06:41:01;24.80;97.40
3705;DHT22;1868;48.918;9.438;2023-07-09T06:43:30;25.00;97.40
3705;DHT22;1868;48.918;9.438;2023-07-09T06:46:00;25.20;97.40
3705;DHT22;1868;48.918;9.438;2023-07-09T06:48:31;25.30;97.40
3705;DHT22;1868;48.918;9.438;2023-07-09T06:51:01;25.50;96.70
3705;DHT22;1868;48.918;9.438;2023-07-09T06:53:32;25.70;95.80
3705;DHT22;1868;48.918;9.438;2023-07-09T06:56:03;25.90;95.60
3705;DHT22;1868;48.918;9.438;2023-07-09T06:58:36;26.10;95.60
3705;DHT22;1868;48.918;9.438;2023-07-09T07:01:06;26.30;94.90
3705;DHT22;1868;48.918;9.438;2023-07-09T07:03:38;26.40;93.00
3705;DHT22;1868;48.918;9.438;2023-07-09T07:06:07;26.60;92.40
3705;DHT22;1868;48.918;9.438;2023-07-09T07:08:36;26.80;92.60
3705;DHT22;1868;48.918;9.438;2023-07-09T07:11:06;26.90;92.20
3705;DHT22;1868;48.918;9.438;2023-07-09T07:13:36;27.10;92.90
3705;DHT22;1868;48.918;9.438;2023-07-09T07:16:08;27.30;91.00
3705;DHT22;1868;48.918;9.438;2023-07-09T07:18:37;27.50;92.40
3705;DHT22;1868;48.918;9.438;2023-07-09T07:21:06;27.70;90.10
3705;DHT22;1868;48.918;9.438;2023-07-09T07:23:38;27.90;90.30
3705;DHT22;1868;48.918;9.438;2023-07-09T07:26:09;28.00;90.50
3705;DHT22;1868;48.918;9.438;2023-07-09T07:28:39;28.20;87.30
3705;DHT22;1868;48.918;9.438;2023-07-09T07:31:08;28.30;86.20
3705;DHT22;1868;48.918;9.438;2023-07-09T07:33:39;28.50;86.20
3705;DHT22;1868;48.918;9.438;2023-07-09T07:36:11;28.60;85.10
3705;DHT22;1868;48.918;9.438;2023-07-09T07:38:56;28.70;85.60
3705;DHT22;1868;48.918;9.438;2023-07-09T07:41:26;28.90;86.20
3705;DHT22;1868;48.918;9.438;2023-07-09T07:43:54;29.10;86.00
3705;DHT22;1868;48.918;9.438;2023-07-09T07:46:22;29.20;84.70
3705;DHT22;1868;48.918;9.438;2023-07-09T07:48:51;29.40;84.50
3705;DHT22;1868;48.918;9.438;2023-07-09T07:51:20;29.50;80.00
3705;DHT22;1868;48.918;9.438;2023-07-09T07:53:49;29.60;80.40
3705;DHT22;1868;48.918;9.438;2023-07-09T07:56:17;29.70;83.00
3705;DHT22;1868;48.918;9.438;2023-07-09T07:58:48;29.80;80.80
3705;DHT22;1868;48.918;9.438;2023-07-09T08:01:18;30.00;79.50
3705;DHT22;1868;48.918;9.438;2023-07-09T08:03:47;30.10;79.50
3705;DHT22;1868;48.918;9.438;2023-07-09T08:06:16;30.20;77.60
3705;DHT22;1868;48.918;9.438;2023-07-09T08:08:45;30.30;78.60
3705;DHT22;1868;48.918;9.438;2023-07-09T08:11:14;30.40;76.90
3705;DHT22;1868;48.918;9.438;2023-07-09T08:13:43;30.60;77.30
3705;DHT22;1868;48.918;9.438;2023-07-09T08:16:13;30.70;76.10
3705;DHT22;1868;48.918;9.438;2023-07-09T08:18:45;30.80;76.90
3705;DHT22;1868;48.918;9.438;2023-07-09T08:21:13;31.00;76.70
3705;DHT22;1868;48.918;9.438;2023-07-09T08:23:42;31.10;75.40
3705;DHT22;1868;48.918;9.438;2023-07-09T08:26:11;31.30;74.30
3705;DHT22;1868;48.918;9.438;2023-07-09T08:28:39;31.30;74.10
3705;DHT22;1868;48.918;9.438;2023-07-09T08:31:08;31.50;73.90
3705;DHT22;1868;48.918;9.438;2023-07-09T08:33:39;31.60;71.50
3705;DHT22;1868;48.918;9.438;2023-07-09T08:36:08;31.80;73.20
3705;DHT22;1868;48.918;9.438;2023-07-09T08:38:38;31.90;72.00
3705;DHT22;1868;48.918;9.438;2023-07-09T08:41:12;32.10;71.10
3705;DHT22;1868;48.918;9.438;2023-07-09T08:43:57;32.20;70.50
3705;DHT22;1868;48.918;9.438;2023-07-09T08:46:41;32.40;69.60
3705;DHT22;1868;48.918;9.438;2023-07-09T08:49:20;32.60;70.00
3705;DHT22;1868;48.918;9.438;2023-07-09T08:52:04;32.70;68.30
3705;DHT22;1868;48.918;9.438;2023-07-09T08:54:39;32.90;69.10
3705;DHT22;1868;48.918;9.438;2023-07-09T08:57:21;33.00;67.60
3705;DHT22;1868;48.918;9.438;2023-07-09T08:59:57;33.20;65.00
3705;DHT22;1868;48.918;9.438;2023-07-09T09:02:36;33.30;66.40
3705;DHT22;1868;48.918;9.438;2023-07-09T09:05:12;33.50;65.30
3705;DHT22;1868;48.918;9.438;2023-07-09T09:07:51;33.60;64.20
3705;DHT22;1868;48.918;9.438;2023-07-09T09:10:29;33.70;61.20
3705;DHT22;1868;48.918;9.438;2023-07-09T09:13:09;33.80;61.40
3705;DHT22;1868;48.918;9.438;2023-07-09T09:15:41;33.70;61.00
3705;DHT22;1868;48.918;9.438;2023-07-09T09:18:22;33.90;61.60
3705;DHT22;1868;48.918;9.438;2023-07-09T09:20:57;34.10;58.40
3705;DHT22;1868;48.918;9.438;2023-07-09T09:23:38;34.30;58.10
3705;DHT22;1868;48.918;9.438;2023-07-09T09:26:14;34.40;58.00
3705;DHT22;1868;48.918;9.438;2023-07-09T09:28:45;34.40;55.10
3705;DHT22;1868;48.918;9.438;2023-07-09T09:31:15;34.60;58.70
3705;DHT22;1868;48.918;9.438;2023-07-09T09:33:47;34.80;56.70
3705;DHT22;1868;48.918;9.438;2023-07-09T09:36:21;34.90;56.00
3705;DHT22;1868;48.918;9.438;2023-07-09T09:38:51;34.90;53.20
3705;DHT22;1868;48.918;9.438;2023-07-09T09:41:22;34.70;53.70
3705;DHT22;1868;48.918;9.438;2023-07-09T09:43:53;34.70;54.60
3705;DHT22;1868;48.918;9.438;2023-07-09T09:46:25;35.00;56.30
3705;DHT22;1868;48.918;9.438;2023-07-09T09:48:58;35.10;51.70
3705;DHT22;1868;48.918;9.438;2023-07-09T09:51:29;35.40;52.00
3705;DHT22;1868;48.918;9.438;2023-07-09T09:53:59;35.60;52.00
3705;DHT22;1868;48.918;9.438;2023-07-09T09:56:33;35.90;48.50
3705;DHT22;1868;48.918;9.438;2023-07-09T09:59:04;36.00;47.80
3705;DHT22;1868;48.918;9.438;2023-07-09T10:01:35;35.90;46.80
3705;DHT22;1868;48.918;9.438;2023-07-09T10:04:05;36.00;48.10
3705;DHT22;1868;48.918;9.438;2023-07-09T10:06:37;36.20;46.40
3705;DHT22;1868;48.918;9.438;2023-07-09T10:09:20;36.20;45.60
3705;DHT22;1868;48.918;9.438;2023-07-09T10:12:03;36.40;45.80
3705;DHT22;1868;48.918;9.438;2023-07-09T10:14:42;36.80;44.40
3705;DHT22;1868;48.918;9.438;2023-07-09T10:17:20;37.10;44.60
3705;DHT22;1868;48.918;9.438;2023-07-09T10:20:09;37.10;40.80
3705;DHT22;1868;48.918;9.438;2023-07-09T10:22:54;36.70;41.70
3705;DHT22;1868;48.918;9.438;2023-07-09T10:25:35;37.10;42.10
3705;DHT22;1868;48.918;9.438;2023-07-09T10:28:45;37.30;40.10
3705;DHT22;1868;48.918;9.438;2023-07-09T10:31:42;37.50;38.90
3705;DHT22;1868;48.918;9.438;2023-07-09T10:34:25;37.80;38.60
3705;DHT22;1868;48.918;9.438;2023-07-09T10:37:17;37.70;39.40
3705;DHT22;1868;48.918;9.438;2023-07-09T10:39:59;38.00;40.80
3705;DHT22;1868;48.918;9.438;2023-07-09T10:42:35;38.20;39.40
3705;DHT22;1868;48.918;9.438;2023-07-09T10:45:11;38.20;37.90
3705;DHT22;1868;48.918;9.438;2023-07-09T10:47:43;37.90;36.50
3705;DHT22;1868;48.918;9.438;2023-07-09T10:50:17;37.60;37.60
3705;DHT22;1868;48.918;9.438;2023-07-09T10:52:59;37.70;38.20
3705;DHT22;1868;48.918;9.438;2023-07-09T10:55:36;37.90;36.90
3705;DHT22;1868;48.918;9.438;2023-07-09T10:58:22;38.10;36.90
3705;DHT22;1868;48.918;9.438;2023-07-09T11:00:57;37.80;37.30
3705;DHT22;1868;48.918;9.438;2023-07-09T11:03:37;37.20;37.90
3705;DHT22;1868;48.918;9.438;2023-07-09T11:06:17;37.50;38.80
3705;DHT22;1868;48.918;9.438;2023-07-09T11:08:51;38.10;40.90
3705;DHT22;1868;48.918;9.438;2023-07-09T11:11:29;38.50;38.60
3705;DHT22;1868;48.918;9.438;2023-07-09T11:14:04;38.80;35.10
3705;DHT22;1868;48.918;9.438;2023-07-09T11:16:41;39.00;36.90
3705;DHT22;1868;48.918;9.438;2023-07-09T11:19:16;39.10;35.10
3705;DHT22;1868;48.918;9.438;2023-07-09T11:21:57;39.30;35.30
3705;DHT22;1868;48.918;9.438;2023-07-09T11:24:34;39.50;37.30
3705;DHT22;1868;48.918;9.438;2023-07-09T11:27:17;39.80;36.30
3705;DHT22;1868;48.918;9.438;2023-07-09T11:29:49;39.80;35.00
3705;DHT22;1868;48.918;9.438;2023-07-09T11:32:26;40.00;35.10
3705;DHT22;1868;48.918;9.438;2023-07-09T11:35:06;40.20;34.50
3705;DHT22;1868;48.918;9.438;2023-07-09T11:37:45;40.50;36.00
3705;DHT22;1868;48.918;9.438;2023-07-09T11:40:15;40.60;33.30
3705;DHT22;1868;48.918;9.438;2023-07-09T11:42:53;40.70;34.70
3705;DHT22;1868;48.918;9.438;2023-07-09T11:45:26;40.70;31.20
3705;DHT22;1868;48.918;9.438;2023-07-09T11:48:01;40.60;30.70
3705;DHT22;1868;48.918;9.438;2023-07-09T11:50:43;40.30;32.40
3705;DHT22;1868;48.918;9.438;2023-07-09T11:53:34;40.40;33.60
3705;DHT22;1868;48.918;9.438;2023-07-09T11:56:08;40.40;30.40
3705;DHT22;1868;48.918;9.438;2023-07-09T11:58:48;40.30;30.20
3705;DHT22;1868;48.918;9.438;2023-07-09T12:01:22;40.40;32.80
3705;DHT22;1868;48.918;9.438;2023-07-09T12:03:52;40.40;29.50
3705;DHT22;1868;48.918;9.438;2023-07-09T12:06:23;40.30;29.20
3705;DHT22;1868;48.918;9.438;2023-07-09T12:08:54;40.30;29.70
3705;DHT22;1868;48.918;9.438;2023-07-09T12:11:26;40.40;31.80
3705;DHT22;1868;48.918;9.438;2023-07-09T12:14:03;40.60;31.90
3705;DHT22;1868;48.918;9.438;2023-07-09T12:16:35;40.70;30.70
3705;DHT22;1868;48.918;9.438;2023-07-09T12:19:07;40.90;31.30
3705;DHT22;1868;48.918;9.438;2023-07-09T12:21:38;41.00;30.60
3705;DHT22;1868;48.918;9.438;2023-07-09T12:24:19;41.00;29.20
3705;DHT22;1868;48.918;9.438;2023-07-09T12:26:51;41.10;29.90
3705;DHT22;1868;48.918;9.438;2023-07-09T12:29:24;41.10;29.50
3705;DHT22;1868;48.918;9.438;2023-07-09T12:31:56;41.20;29.80
3705;DHT22;1868;48.918;9.438;2023-07-09T12:34:25;41.20;30.60
3705;DHT22;1868;48.918;9.438;2023-07-09T12:36:56;41.30;30.60
3705;DHT22;1868;48.918;9.438;2023-07-09T12:39:26;41.30;29.20
3705;DHT22;1868;48.918;9.438;2023-07-09T12:41:56;41.20;29.40
3705;DHT22;1868;48.918;9.438;2023-07-09T12:44:33;41.20;30.20
3705;DHT22;1868;48.918;9.438;2023-07-09T12:47:04;41.30;29.90
3705;DHT22;1868;48.918;9.438;2023-07-09T12:49:39;41.20;29.50
3705;DHT22;1868;48.918;9.438;2023-07-09T12:52:14;41.20;29.90
3705;DHT22;1868;48.918;9.438;2023-07-09T12:54:56;41.30;30.70
3705;DHT22;1868;48.918;9.438;2023-07-09T12:57:26;41.20;29.30
3705;DHT22;1868;48.918;9.438;2023-07-09T12:59:57;41.30;29.10
3705;DHT22;1868;48.918;9.438;2023-07-09T13:02:27;41.30;29.90
3705;DHT22;1868;48.918;9.438;2023-07-09T13:05:02;41.20;29.20
3705;DHT22;1868;48.918;9.438;2023-07-09T13:07:36;41.20;30.40
3705;DHT22;1868;48.918;9.438;2023-07-09T13:10:14;41.20;30.40
3705;DHT22;1868;48.918;9.438;2023-07-09T13:12:46;41.20;29.20
3705;DHT22;1868;48.918;9.438;2023-07-09T13:15:25;41.20;29.90
3705;DHT22;1868;48.918;9.438;2023-07-09T13:18:01;41.30;29.60
3705;DHT22;1868;48.918;9.438;2023-07-09T13:20:32;41.20;28.20
3705;DHT22;1868;48.918;9.438;2023-07-09T13:23:09;41.00;29.20
3705;DHT22;1868;48.918;9.438;2023-07-09T13:25:39;40.70;29.00
3705;DHT22;1868;48.918;9.438;2023-07-09T13:28:18;40.40;29.30
3705;DHT22;1868;48.918;9.438;2023-07-09T13:30:58;39.90;29.00
3705;DHT22;1868;48.918;9.438;2023-07-09T13:33:29;39.90;29.20
3705;DHT22;1868;48.918;9.438;2023-07-09T13:35:57;40.00;29.70
3705;DHT22;1868;48.918;9.438;2023-07-09T13:38:26;40.10;28.70
3705;DHT22;1868;48.918;9.438;2023-07-09T13:40:57;40.10;30.90
3705;DHT22;1868;48.918;9.438;2023-07-09T13:43:30;40.20;30.10
3705;DHT22;1868;48.918;9.438;2023-07-09T13:46:07;40.30;29.70
3705;DHT22;1868;48.918;9.438;2023-07-09T13:48:39;40.30;29.60
3705;DHT22;1868;48.918;9.438;2023-07-09T13:51:18;40.20;29.50
3705;DHT22;1868;48.918;9.438;2023-07-09T13:53:48;40.30;29.80
3705;DHT22;1868;48.918;9.438;2023-07-09T13:56:19;40.20;28.40
3705;DHT22;1868;48.918;9.438;2023-07-09T13:58:48;40.00;29.20
3705;DHT22;1868;48.918;9.438;2023-07-09T14:01:22;39.90;28.30
3705;DHT22;1868;48.918;9.438;2023-07-09T14:03:54;39.90;29.00
3705;DHT22;1868;48.918;9.438;2023-07-09T14:06:25;39.90;27.60
3705;DHT22;1868;48.918;9.438;2023-07-09T14:08:54;39.90;28.70
3705;DHT22;1868;48.918;9.438;2023-07-09T14:11:22;39.90;28.60
3705;DHT22;1868;48.918;9.438;2023-07-09T14:13:55;39.80;28.20
3705;DHT22;1868;48.918;9.438;2023-07-09T14:16:26;39.50;27.20
3705;DHT22;1868;48.918;9.438;2023-07-09T14:18:55;39.60;28.60
3705;DHT22;1868;48.918;9.438;2023-07-09T14:21:25;39.60;27.40
3705;DHT22;1868;48.918;9.438;2023-07-09T14:23:54;39.60;25.70
3705;DHT22;1868;48.918;9.438;2023-07-09T14:26:24;39.60;26.70
3705;DHT22;1868;48.918;9.438;2023-07-09T14:28:52;39.30;27.10
3705;DHT22;1868;48.918;9.438;2023-07-09T14:31:28;39.20;27.60
3705;DHT22;1868;48.918;9.438;2023-07-09T14:34:16;39.10;28.00
3705;DHT22;1868;48.918;9.438;2023-07-09T14:36:49;39.10;29.10
3705;DHT22;1868;48.918;9.438;2023-07-09T14:39:19;38.90;28.00
3705;DHT22;1868;48.918;9.438;2023-07-09T14:41:49;38.90;28.80
3705;DHT22;1868;48.918;9.438;2023-07-09T14:44:24;38.90;28.20
3705;DHT22;1868;48.918;9.438;2023-07-09T14:46:58;38.90;28.40
3705;DHT22;1868;48.918;9.438;2023-07-09T14:49:28;38.70;27.40
3705;DHT22;1868;48.918;9.438;2023-07-09T14:51:59;38.60;28.00
3705;DHT22;1868;48.918;9.438;2023-07-09T14:54:30;38.70;28.10
3705;DHT22;1868;48.918;9.438;2023-07-09T14:57:01;38.60;28.70
3705;DHT22;1868;48.918;9.438;2023-07-09T14:59:36;38.60;28.00
3705;DHT22;1868;48.918;9.438;2023-07-09T15:02:21;38.50;28.00
3705;DHT22;1868;48.918;9.438;2023-07-09T15:04:53;38.50;28.90
3705;DHT22;1868;48.918;9.438;2023-07-09T15:07:25;38.50;28.80
3705;DHT22;1868;48.918;9.438;2023-07-09T15:09:57;38.40;29.70
3705;DHT22;1868;48.918;9.438;2023-07-09T15:12:30;38.40;29.60
3705;DHT22;1868;48.918;9.438;2023-07-09T15:15:06;38.40;29.90
3705;DHT22;1868;48.918;9.438;2023-07-09T15:17:43;38.50;29.60
3705;DHT22;1868;48.918;9.438;2023-07-09T15:20:14;38.50;31.00
3705;DHT22;1868;48.918;9.438;2023-07-09T15:22:44;38.60;29.10
3705;DHT22;1868;48.918;9.438;2023-07-09T15:25:16;38.40;29.60
3705;DHT22;1868;48.918;9.438;2023-07-09T15:27:47;38.40;29.90
3705;DHT22;1868;48.918;9.438;2023-07-09T15:30:17;38.60;29.10
3705;DHT22;1868;48.918;9.438;2023-07-09T15:32:49;38.70;30.60
3705;DHT22;1868;48.918;9.438;2023-07-09T15:35:19;38.80;30.70
3705;DHT22;1868;48.918;9.438;2023-07-09T15:37:49;38.80;29.80
3705;DHT22;1868;48.918;9.438;2023-07-09T15:40:20;38.60;29.80
3705;DHT22;1868;48.918;9.438;2023-07-09T15:42:52;38.40;30.20
3705;DHT22;1868;48.918;9.438;2023-07-09T15:45:23;38.10;30.40
3705;DHT22;1868;48.918;9.438;2023-07-09T15:47:55;38.10;31.30
3705;DHT22;1868;48.918;9.438;2023-07-09T15:50:27;38.10;30.20
3705;DHT22;1868;48.918;9.438;2023-07-09T15:52:56;37.90;30.60
3705;DHT22;1868;48.918;9.438;2023-07-09T15:55:26;37.80;31.20
3705;DHT22;1868;48.918;9.438;2023-07-09T15:57:56;37.90;30.70
3705;DHT22;1868;48.918;9.438;2023-07-09T16:00:27;37.90;31.50
3705;DHT22;1868;48.918;9.438;2023-07-09T16:03:00;37.90;31.00
3705;DHT22;1868;48.918;9.438;2023-07-09T16:05:46;37.90;31.60
3705;DHT22;1868;48.918;9.438;2023-07-09T16:08:15;37.90;31.00
3705;DHT22;1868;48.918;9.438;2023-07-09T16:10:45;37.90;31.20
3705;DHT22;1868;48.918;9.438;2023-07-09T16:13:18;38.00;31.00
3705;DHT22;1868;48.918;9.438;2023-07-09T16:15:48;38.00;31.30
3705;DHT22;1868;48.918;9.438;2023-07-09T16:18:20;37.70;31.90
3705;DHT22;1868;48.918;9.438;2023-07-09T16:20:49;37.70;34.20
3705;DHT22;1868;48.918;9.438;2023-07-09T16:23:20;37.60;33.60
3705;DHT22;1868;48.918;9.438;2023-07-09T16:25:50;37.50;33.40
3705;DHT22;1868;48.918;9.438;2023-07-09T16:28:20;37.60;34.70
3705;DHT22;1868;48.918;9.438;2023-07-09T16:30:49;37.60;34.10
3705;DHT22;1868;48.918;9.438;2023-07-09T16:33:20;37.50;34.80
3705;DHT22;1868;48.918;9.438;2023-07-09T16:35:53;37.30;35.40